createdAt,value
2022-08-29T00:00:17.649Z,68.11
2022-08-29T00:02:47.789Z,68.12
2022-08-29T00:05:18.364Z,68.63
2022-08-29T00:07:46.861Z,68.78
2022-08-29T00:10:15.972Z,68.30
2022-08-29T00:12:45.184Z,68.85
2022-08-29T00:15:15.353Z,69.11
2022-08-29T00:17:44.267Z,69.82
2022-08-29T00:20:17.235Z,70.24
2022-08-29T00:22:45.692Z,70.20
2022-08-29T00:25:15.200Z,70.04
2022-08-29T00:27:44.575Z,69.58
2022-08-29T00:30:19.835Z,69.45
2022-08-29T00:32:47.989Z,69.77
2022-08-29T00:35:22.999Z,69.66
2022-08-29T00:37:52.270Z,69.96
2022-08-29T00:40:24.287Z,70.58
2022-08-29T00:42:52.685Z,70.87
2022-08-29T00:45:20.887Z,71.12
2022-08-29T00:47:53.856Z,70.82
2022-08-29T00:50:28.706Z,71.02
2022-08-29T00:52:58.447Z,71.42
2022-08-29T00:55:30.231Z,71.26
2022-08-29T00:58:01.222Z,71.33
2022-08-29T01:00:29.643Z,71.23
2022-08-29T01:02:58.198Z,70.44
2022-08-29T01:05:28.152Z,70.42
2022-08-29T01:07:56.490Z,70.55
2022-08-29T01:10:42.813Z,70.62
2022-08-29T01:13:12.927Z,70.88
2022-08-29T01:15:44.103Z,70.47
2022-08-29T01:18:16.729Z,70.54
2022-08-29T01:20:58.448Z,70.78
2022-08-29T01:23:34.333Z,71.23
2022-08-29T01:26:06.827Z,70.90
2022-08-29T01:28:39.626Z,70.13
2022-08-29T01:31:10.660Z,70.72
2022-08-29T01:33:43.396Z,70.93
2022-08-29T01:36:15.628Z,71.04
2022-08-29T01:38:44.271Z,70.78
2022-08-29T01:41:14.737Z,71.00
2022-08-29T01:43:48.832Z,71.38
2022-08-29T01:46:19.481Z,71.54
2022-08-29T01:48:48.544Z,71.83
2022-08-29T01:51:18.008Z,72.05
2022-08-29T01:53:46.318Z,72.70
2022-08-29T01:56:19.062Z,73.19
2022-08-29T01:58:48.952Z,73.34
2022-08-29T02:01:20.456Z,72.96
2022-08-29T02:03:50.399Z,72.71
2022-08-29T02:06:18.839Z,72.85
2022-08-29T02:08:47.071Z,72.91
2022-08-29T02:11:17.969Z,73.04
2022-08-29T02:13:48.564Z,73.15
2022-08-29T02:16:18.333Z,73.45
2022-08-29T02:18:47.136Z,73.23
2022-08-29T02:21:18.663Z,73.80
2022-08-29T02:23:50.076Z,74.14
2022-08-29T02:26:21.977Z,73.97
2022-08-29T02:28:51.777Z,73.84
2022-08-29T02:31:21.624Z,74.20
2022-08-29T02:33:49.823Z,75.13
2022-08-29T02:36:17.996Z,75.66
2022-08-29T02:38:48.404Z,76.39
2022-08-29T02:41:16.813Z,76.33
2022-08-29T02:43:46.266Z,76.54
2022-08-29T02:46:17.352Z,76.13
2022-08-29T02:48:47.655Z,76.25
2022-08-29T02:51:31.605Z,77.42
2022-08-29T02:54:00.791Z,77.57
2022-08-29T02:56:29.291Z,76.66
2022-08-29T02:58:59.414Z,77.05
2022-08-29T03:01:28.663Z,76.70
2022-08-29T03:03:56.776Z,77.09
2022-08-29T03:06:25.445Z,77.58
2022-08-29T03:08:54.258Z,77.77
2022-08-29T03:11:24.161Z,77.69
2022-08-29T03:13:52.616Z,77.26
2022-08-29T03:16:27.888Z,77.04
2022-08-29T03:18:56.571Z,77.61
2022-08-29T03:21:27.307Z,77.82
2022-08-29T03:23:57.023Z,78.31
2022-08-29T03:26:25.932Z,79.64
2022-08-29T03:28:54.297Z,79.10
2022-08-29T03:31:22.876Z,79.22
2022-08-29T03:33:52.523Z,78.37
2022-08-29T03:36:20.913Z,78.17
2022-08-29T03:38:49.489Z,79.22
2022-08-29T03:41:22.391Z,79.38
2022-08-29T03:43:50.593Z,79.50
2022-08-29T03:46:18.962Z,78.73
2022-08-29T03:48:47.127Z,77.91
2022-08-29T03:51:16.774Z,78.18
2022-08-29T03:53:45.340Z,78.64
2022-08-29T03:56:18.345Z,78.67
2022-08-29T03:58:52.554Z,79.96
2022-08-29T04:01:22.829Z,81.49
2022-08-29T04:03:51.629Z,81.09
2022-08-29T04:06:22.506Z,80.17
2022-08-29T04:08:51.736Z,80.46
2022-08-29T04:11:22.587Z,79.82
2022-08-29T04:13:51.446Z,79.17
2022-08-29T04:16:23.108Z,79.45
2022-08-29T04:18:51.506Z,79.67
2022-08-29T04:21:21.123Z,78.49
2022-08-29T04:23:53.442Z,77.05
2022-08-29T04:26:37.743Z,77.91
2022-08-29T04:29:06.729Z,78.60
2022-08-29T04:31:36.704Z,80.24
2022-08-29T04:34:06.206Z,79.79
2022-08-29T04:36:37.142Z,79.50
2022-08-29T04:39:06.614Z,78.45
2022-08-29T04:41:35.422Z,78.77
2022-08-29T04:44:03.756Z,78.41
2022-08-29T04:46:32.906Z,76.83
2022-08-29T04:49:04.304Z,76.95
2022-08-29T04:51:34.481Z,77.51
2022-08-29T04:54:05.314Z,77.47
2022-08-29T04:56:34.847Z,79.01
2022-08-29T04:59:03.054Z,79.33
2022-08-29T05:01:31.869Z,79.64
2022-08-29T05:04:00.103Z,81.13
2022-08-29T05:06:28.725Z,81.71
2022-08-29T05:08:59.337Z,82.45
2022-08-29T05:11:30.884Z,82.79
2022-08-29T05:14:00.680Z,83.74
2022-08-29T05:16:30.492Z,83.82
2022-08-29T05:19:00.061Z,84.34
2022-08-29T05:21:34.149Z,83.98
2022-08-29T05:24:06.083Z,82.18
2022-08-29T05:26:39.090Z,80.81
2022-08-29T05:29:09.653Z,80.59
2022-08-29T05:31:38.273Z,79.73
2022-08-29T05:34:29.928Z,79.35
2022-08-29T05:36:55.188Z,77.35
2022-08-29T05:39:23.530Z,75.78
2022-08-29T05:41:56.479Z,74.64
2022-08-29T05:44:24.913Z,71.84
2022-08-29T05:46:53.040Z,70.31
2022-08-29T05:49:21.524Z,69.92
2022-08-29T05:51:53.347Z,69.63
2022-08-29T05:54:21.903Z,70.23
2022-08-29T05:56:51.293Z,68.02
2022-08-29T05:59:21.302Z,67.35
2022-08-29T06:01:49.470Z,65.02
2022-08-29T06:04:17.573Z,64.10
2022-08-29T06:06:45.940Z,63.48
2022-08-29T06:09:15.086Z,63.33
2022-08-29T06:11:47.156Z,62.31
2022-08-29T06:14:15.917Z,61.83
2022-08-29T06:16:45.606Z,61.43
2022-08-29T06:19:13.805Z,61.45
2022-08-29T06:21:42.076Z,61.50
2022-08-29T06:24:10.493Z,61.25
2022-08-29T06:26:38.725Z,60.93
2022-08-29T06:29:09.790Z,58.86
2022-08-29T06:31:38.753Z,59.59
2022-08-29T06:34:10.178Z,58.27
2022-08-29T06:36:38.804Z,57.43
2022-08-29T06:39:09.954Z,56.36
2022-08-29T06:41:40.766Z,57.32
2022-08-29T06:44:10.547Z,57.80
2022-08-29T06:46:41.770Z,57.49
2022-08-29T06:49:14.667Z,55.32
2022-08-29T06:51:46.862Z,55.34
2022-08-29T06:54:15.465Z,55.26
2022-08-29T06:56:44.228Z,56.42
2022-08-29T06:59:13.192Z,54.73
2022-08-29T07:01:42.935Z,54.87
2022-08-29T07:04:14.598Z,54.38
2022-08-29T07:06:44.173Z,55.65
2022-08-29T07:09:13.166Z,54.69
2022-08-29T07:11:43.342Z,54.67
2022-08-29T07:14:13.535Z,53.83
2022-08-29T07:16:45.116Z,51.31
2022-08-29T07:19:14.923Z,50.84
2022-08-29T07:21:44.074Z,50.87
2022-08-29T07:24:12.400Z,51.18
2022-08-29T07:26:44.292Z,52.11
2022-08-29T07:29:15.997Z,51.66
2022-08-29T07:31:44.293Z,49.04
2022-08-29T07:34:14.673Z,48.55
2022-08-29T07:36:43.063Z,49.02
2022-08-29T07:39:13.360Z,48.30
2022-08-29T07:41:43.673Z,47.83
2022-08-29T07:44:15.910Z,48.19
2022-08-29T07:46:47.541Z,47.07
2022-08-29T07:49:17.329Z,47.32
2022-08-29T07:51:45.540Z,47.30
2022-08-29T07:54:16.904Z,46.84
2022-08-29T07:56:46.043Z,46.06
2022-08-29T07:59:14.541Z,46.09
2022-08-29T08:01:42.715Z,44.67
2022-08-29T08:04:11.661Z,44.36
2022-08-29T08:06:43.611Z,44.55
2022-08-29T08:09:14.149Z,44.64
2022-08-29T08:11:43.788Z,44.27
2022-08-29T08:14:12.695Z,44.79
2022-08-29T08:16:44.319Z,44.65
2022-08-29T08:19:14.300Z,44.80
2022-08-29T08:21:49.593Z,45.19
2022-08-29T08:24:19.752Z,45.05
2022-08-29T08:26:49.670Z,45.27
2022-08-29T08:29:18.519Z,44.57
2022-08-29T08:31:50.056Z,43.82
2022-08-29T08:34:19.024Z,43.39
2022-08-29T08:36:48.697Z,42.96
2022-08-29T08:39:17.163Z,41.81
2022-08-29T08:41:58.544Z,41.66
2022-08-29T08:45:05.722Z,41.29
2022-08-29T08:47:40.174Z,41.62
2022-08-29T08:50:17.650Z,41.23
2022-08-29T08:52:55.163Z,40.34
2022-08-29T08:55:30.747Z,39.65
2022-08-29T08:58:08.004Z,40.63
2022-08-29T09:00:43.655Z,40.86
2022-08-29T09:03:26.566Z,40.10
2022-08-29T09:06:10.841Z,39.42
2022-08-29T09:08:52.363Z,39.44
2022-08-29T09:11:28.225Z,39.67
2022-08-29T09:14:10.917Z,39.69
2022-08-29T09:16:45.091Z,39.18
2022-08-29T09:19:17.269Z,38.29
2022-08-29T09:21:49.815Z,38.34
2022-08-29T09:24:27.111Z,38.82
2022-08-29T09:26:56.410Z,39.71
2022-08-29T09:29:28.622Z,39.92
2022-08-29T09:32:10.368Z,39.41
2022-08-29T09:35:06.911Z,38.26
2022-08-29T09:37:36.288Z,38.37
2022-08-29T09:40:10.828Z,38.53
2022-08-29T09:42:42.859Z,38.66
2022-08-29T09:45:30.711Z,37.50
2022-08-29T09:48:12.291Z,37.56
2022-08-29T09:50:40.462Z,37.22
2022-08-29T09:53:11.673Z,37.41
2022-08-29T09:55:54.944Z,36.18
2022-08-29T09:58:34.262Z,35.85
2022-08-29T10:01:09.862Z,36.64
2022-08-29T10:03:44.462Z,35.98
2022-08-29T10:06:16.569Z,36.30
2022-08-29T10:08:57.758Z,35.23
2022-08-29T10:11:33.099Z,34.81
2022-08-29T10:14:05.572Z,35.60
2022-08-29T10:16:50.492Z,36.51
2022-08-29T10:19:22.550Z,35.52
2022-08-29T10:22:00.716Z,35.86
2022-08-29T10:24:55.222Z,33.94
2022-08-29T10:27:33.826Z,33.33
2022-08-29T10:30:10.225Z,32.76
2022-08-29T10:33:01.255Z,32.76
2022-08-29T10:35:35.147Z,32.43
2022-08-29T10:38:13.669Z,32.29
2022-08-29T10:40:47.548Z,31.92
2022-08-29T10:43:43.383Z,32.23
2022-08-29T10:46:24.842Z,31.95
2022-08-29T10:49:03.504Z,32.09
2022-08-29T10:51:38.139Z,32.21
2022-08-29T10:54:18.392Z,32.69
2022-08-29T10:56:49.641Z,32.39
2022-08-29T10:59:30.302Z,32.22
2022-08-29T11:02:03.353Z,32.09
2022-08-29T11:04:38.350Z,31.43
2022-08-29T11:07:12.973Z,31.64
2022-08-29T11:09:45.217Z,31.67
2022-08-29T11:12:18.979Z,31.86
2022-08-29T11:14:54.428Z,31.04
2022-08-29T11:17:26.135Z,31.26
2022-08-29T11:20:09.685Z,31.08
2022-08-29T11:22:43.180Z,30.97
2022-08-29T11:25:14.535Z,30.99
2022-08-29T11:27:54.747Z,31.29
2022-08-29T11:30:30.687Z,31.50
2022-08-29T11:33:08.511Z,30.55
2022-08-29T11:35:47.185Z,30.29
2022-08-29T11:38:59.289Z,29.51
2022-08-29T11:41:30.992Z,28.53
2022-08-29T11:44:11.501Z,29.57
2022-08-29T11:46:49.011Z,29.80
2022-08-29T11:49:37.344Z,29.73
2022-08-29T11:52:27.349Z,30.20
2022-08-29T11:55:22.690Z,29.44
2022-08-29T11:58:01.730Z,28.26
2022-08-29T12:00:48.596Z,27.50
2022-08-29T12:03:53.819Z,28.42
2022-08-29T12:06:51.706Z,29.06
2022-08-29T12:09:47.748Z,29.04
2022-08-29T12:12:38.307Z,30.00
2022-08-29T12:15:48.959Z,29.64
2022-08-29T12:18:36.931Z,30.04
2022-08-29T12:21:46.126Z,30.32
2022-08-29T12:24:55.168Z,30.21
2022-08-29T12:27:59.718Z,29.15
2022-08-29T12:30:28.515Z,30.00
2022-08-29T12:33:09.132Z,29.65
2022-08-29T12:36:08.259Z,29.76
2022-08-29T12:38:44.790Z,29.72
2022-08-29T12:41:34.025Z,29.24
2022-08-29T12:44:05.961Z,28.29
2022-08-29T12:46:36.809Z,28.54
2022-08-29T12:49:16.059Z,28.23
2022-08-29T12:51:44.811Z,27.86
2022-08-29T12:54:13.954Z,27.93
2022-08-29T12:56:49.996Z,28.46
2022-08-29T12:59:20.364Z,29.05
2022-08-29T13:01:52.272Z,28.57
2022-08-29T13:04:32.001Z,27.97
2022-08-29T13:07:03.196Z,26.98
2022-08-29T13:09:34.161Z,27.68
2022-08-29T13:12:13.529Z,27.83
2022-08-29T13:15:04.071Z,28.88
2022-08-29T13:17:35.525Z,29.04
2022-08-29T13:20:42.831Z,28.83
2022-08-29T13:23:17.158Z,29.38
2022-08-29T13:25:49.760Z,28.80
2022-08-29T13:28:25.324Z,29.13
2022-08-29T13:31:30.499Z,28.99
2022-08-29T13:34:12.948Z,28.47
2022-08-29T13:36:46.226Z,28.88
2022-08-29T13:39:29.183Z,28.84
2022-08-29T13:42:21.444Z,29.76
2022-08-29T13:45:13.110Z,28.76
2022-08-29T13:47:49.697Z,27.95
2022-08-29T13:50:17.865Z,27.56
2022-08-29T13:52:46.027Z,27.16
2022-08-29T13:55:14.298Z,27.37
2022-08-29T13:57:42.876Z,27.09
2022-08-29T14:00:13.940Z,27.75
2022-08-29T14:02:45.123Z,28.82
2022-08-29T14:05:15.006Z,27.61
2022-08-29T14:07:45.670Z,27.38
2022-08-29T14:10:17.608Z,27.75
2022-08-29T14:12:47.572Z,29.65
2022-08-29T14:15:19.032Z,30.79
2022-08-29T14:17:49.064Z,31.63
2022-08-29T14:20:20.010Z,31.72
2022-08-29T14:22:48.889Z,32.04
2022-08-29T14:25:20.436Z,32.23
2022-08-29T14:27:49.633Z,32.44
2022-08-29T14:30:22.059Z,33.09
2022-08-29T14:32:50.476Z,31.26
2022-08-29T14:35:26.766Z,30.24
2022-08-29T14:38:01.474Z,30.15
2022-08-29T14:40:30.731Z,30.32
2022-08-29T14:42:59.414Z,29.48
2022-08-29T14:45:30.261Z,30.17
2022-08-29T14:47:59.042Z,30.17
2022-08-29T14:50:29.758Z,30.14
2022-08-29T14:52:57.892Z,30.53
2022-08-29T14:55:26.415Z,30.63
2022-08-29T14:57:54.789Z,29.85
2022-08-29T15:00:25.865Z,29.24
2022-08-29T15:02:56.985Z,29.40
2022-08-29T15:05:26.083Z,29.85
2022-08-29T15:07:54.619Z,31.00
2022-08-29T15:10:25.177Z,33.11
2022-08-29T15:12:54.876Z,33.52
2022-08-29T15:15:29.535Z,33.82
2022-08-29T15:18:00.740Z,34.09
2022-08-29T15:20:38.735Z,33.88
2022-08-29T15:23:08.203Z,33.92
2022-08-29T15:25:36.516Z,34.09
2022-08-29T15:28:06.904Z,34.57
2022-08-29T15:30:35.563Z,35.27
2022-08-29T15:33:05.415Z,35.30
2022-08-29T15:35:34.347Z,35.06
2022-08-29T15:38:02.675Z,34.62
2022-08-29T15:40:31.362Z,34.24
2022-08-29T15:42:59.703Z,35.19
2022-08-29T15:45:27.906Z,36.30
2022-08-29T15:47:59.009Z,36.72
2022-08-29T15:50:47.109Z,36.44
2022-08-29T15:53:15.676Z,35.91
2022-08-29T15:55:44.588Z,35.91
2022-08-29T15:58:12.886Z,36.60
2022-08-29T16:00:41.214Z,37.34
2022-08-29T16:03:09.755Z,38.47
2022-08-29T16:05:41.106Z,38.67
2022-08-29T16:08:10.773Z,38.53
2022-08-29T16:10:45.387Z,38.90
2022-08-29T16:13:14.512Z,39.12
2022-08-29T16:15:42.953Z,39.04
2022-08-29T16:18:11.529Z,39.32
2022-08-29T16:20:41.692Z,39.28
2022-08-29T16:23:10.118Z,39.74
2022-08-29T16:25:39.264Z,39.79
2022-08-29T16:28:07.732Z,40.24
2022-08-29T16:30:44.232Z,40.57
2022-08-29T16:33:14.159Z,40.96
2022-08-29T16:35:43.876Z,41.30
2022-08-29T16:38:12.530Z,41.25
2022-08-29T16:40:41.024Z,41.35
2022-08-29T16:43:09.752Z,41.50
2022-08-29T16:45:38.275Z,41.46
2022-08-29T16:48:17.667Z,41.69
2022-08-29T16:50:48.026Z,41.73
2022-08-29T16:53:16.314Z,41.87
2022-08-29T16:55:44.477Z,41.74
2022-08-29T16:58:30.155Z,42.05
2022-08-29T17:00:58.890Z,41.95
2022-08-29T17:03:27.293Z,42.56
2022-08-29T17:05:56.933Z,42.49
2022-08-29T17:08:23.993Z,42.39
2022-08-29T17:10:50.977Z,42.39
2022-08-29T17:13:18.150Z,42.70
2022-08-29T17:15:45.129Z,42.39
2022-08-29T17:18:13.345Z,42.16
2022-08-29T17:20:44.014Z,41.83
2022-08-29T17:23:16.402Z,41.95
2022-08-29T17:25:44.846Z,41.75
2022-08-29T17:28:18.109Z,41.32
2022-08-29T17:30:48.082Z,41.29
2022-08-29T17:33:17.005Z,41.70
2022-08-29T17:35:45.667Z,41.23
2022-08-29T17:38:16.118Z,41.53
2022-08-29T17:40:44.765Z,42.06
2022-08-29T17:43:15.031Z,42.20
2022-08-29T17:45:43.334Z,42.73
2022-08-29T17:48:11.840Z,42.46
2022-08-29T17:50:41.533Z,42.69
2022-08-29T17:53:09.673Z,42.69
2022-08-29T17:55:43.008Z,42.73
2022-08-29T17:58:11.629Z,42.76
2022-08-29T18:00:40.021Z,42.49
2022-08-29T18:03:08.262Z,42.62
2022-08-29T18:05:36.634Z,43.01
2022-08-29T18:08:05.318Z,43.14
2022-08-29T18:10:33.813Z,43.50
2022-08-29T18:13:04.012Z,44.31
2022-08-29T18:15:35.550Z,44.25
2022-08-29T18:18:04.151Z,44.08
2022-08-29T18:20:33.802Z,44.49
2022-08-29T18:23:02.006Z,44.46
2022-08-29T18:25:30.362Z,44.48
2022-08-29T18:28:00.224Z,45.16
2022-08-29T18:30:29.980Z,45.26
2022-08-29T18:32:58.535Z,45.65
2022-08-29T18:35:27.498Z,46.09
2022-08-29T18:37:55.879Z,46.63
2022-08-29T18:40:25.550Z,46.88
2022-08-29T18:42:54.817Z,47.19
2022-08-29T18:45:23.148Z,47.46
2022-08-29T18:47:52.849Z,47.42
2022-08-29T18:50:36.707Z,47.92
2022-08-29T18:53:11.966Z,48.53
2022-08-29T18:55:45.000Z,48.03
2022-08-29T18:58:17.995Z,48.79
2022-08-29T19:00:46.326Z,48.95
2022-08-29T19:03:16.093Z,49.63
2022-08-29T19:05:49.572Z,49.80
2022-08-29T19:08:18.241Z,50.80
2022-08-29T19:10:48.567Z,51.04
2022-08-29T19:13:18.759Z,51.58
2022-08-29T19:15:48.699Z,51.79
2022-08-29T19:18:18.951Z,52.55
2022-08-29T19:21:06.591Z,52.68
2022-08-29T19:23:37.575Z,53.00
2022-08-29T19:26:08.226Z,52.96
2022-08-29T19:28:36.718Z,52.74
2022-08-29T19:31:06.773Z,53.11
2022-08-29T19:33:38.377Z,53.18
2022-08-29T19:36:09.792Z,53.40
2022-08-29T19:38:38.008Z,53.97
2022-08-29T19:41:06.360Z,54.08
2022-08-29T19:43:36.010Z,54.23
2022-08-29T19:46:10.485Z,54.33
2022-08-29T19:48:44.265Z,54.18
2022-08-29T19:51:18.522Z,53.96
2022-08-29T19:53:47.668Z,54.00
2022-08-29T19:56:15.895Z,54.32
2022-08-29T19:58:44.246Z,53.85
2022-08-29T20:01:12.552Z,54.18
2022-08-29T20:03:42.466Z,54.64
2022-08-29T20:06:12.358Z,54.62
2022-08-29T20:08:42.759Z,54.61
2022-08-29T20:11:12.907Z,55.01
2022-08-29T20:13:41.137Z,54.92
2022-08-29T20:16:12.133Z,55.10
2022-08-29T20:18:41.217Z,55.76
2022-08-29T20:21:09.891Z,55.42
2022-08-29T20:26:28.226Z,53.72
2022-08-29T20:28:58.438Z,52.91
2022-08-29T20:31:26.705Z,52.16
2022-08-29T20:33:55.473Z,52.11
2022-08-29T20:36:42.289Z,52.06
2022-08-29T20:39:15.297Z,52.21
2022-08-29T20:41:49.359Z,52.63
2022-08-29T20:44:20.409Z,52.95
2022-08-29T20:46:49.448Z,53.58
2022-08-29T20:49:22.773Z,54.09
2022-08-29T20:51:52.148Z,53.83
2022-08-29T20:54:25.078Z,54.40
2022-08-29T20:56:55.104Z,55.19
2022-08-29T20:59:26.454Z,56.50
2022-08-29T21:01:55.555Z,56.36
2022-08-29T21:04:41.225Z,56.92
2022-08-29T21:07:12.178Z,58.12
2022-08-29T21:09:44.413Z,58.82
2022-08-29T21:12:15.168Z,59.24
2022-08-29T21:14:43.495Z,59.92
2022-08-29T21:17:13.559Z,59.55
2022-08-29T21:19:42.223Z,59.37
2022-08-29T21:22:12.890Z,59.77
2022-08-29T21:24:43.216Z,59.59
2022-08-29T21:27:11.577Z,59.69
2022-08-29T21:29:40.537Z,59.44
2022-08-29T21:32:08.739Z,59.30
2022-08-29T21:34:36.878Z,59.88
2022-08-29T21:37:05.659Z,59.41
2022-08-29T21:39:33.966Z,59.91
2022-08-29T21:42:03.415Z,59.79
2022-08-29T21:44:32.431Z,60.08
2022-08-29T21:47:01.121Z,60.08
2022-08-29T21:49:30.533Z,60.21
2022-08-29T21:51:58.657Z,60.35
2022-08-29T21:54:27.215Z,60.12
2022-08-29T21:56:55.334Z,60.35
2022-08-29T21:59:25.505Z,60.99
2022-08-29T22:01:54.944Z,61.01
2022-08-29T22:04:28.595Z,61.52
2022-08-29T22:06:58.318Z,61.41
2022-08-29T22:09:27.897Z,61.62
2022-08-29T22:11:56.264Z,61.75
2022-08-29T22:14:47.017Z,61.36
2022-08-29T22:17:15.744Z,61.81
2022-08-29T22:19:43.871Z,62.62
2022-08-29T22:22:12.536Z,63.13
2022-08-29T22:24:40.777Z,63.45
2022-08-29T22:27:08.979Z,63.84
2022-08-29T22:29:38.694Z,64.53
2022-08-29T22:32:07.080Z,65.29
2022-08-29T22:34:35.598Z,65.78
2022-08-29T22:37:03.961Z,65.78
2022-08-29T22:39:32.413Z,65.42
2022-08-29T22:42:00.483Z,65.26
2022-08-29T22:47:20.018Z,64.74
2022-08-29T22:49:48.137Z,64.25
2022-08-29T22:52:16.218Z,64.05
2022-08-29T22:54:44.376Z,63.73
2022-08-29T22:57:19.223Z,63.54
2022-08-29T22:59:49.822Z,63.76
2022-08-29T23:02:21.119Z,63.88
2022-08-29T23:04:50.618Z,63.95
2022-08-29T23:07:19.360Z,63.56
2022-08-29T23:09:47.850Z,63.46
2022-08-29T23:12:16.494Z,63.66
2022-08-29T23:14:47.426Z,63.05
2022-08-29T23:17:17.281Z,63.39
2022-08-29T23:19:46.898Z,63.09
2022-08-29T23:22:18.333Z,63.22
2022-08-29T23:24:53.769Z,62.80
2022-08-29T23:27:27.647Z,62.53
2022-08-29T23:29:56.081Z,62.39
2022-08-29T23:32:24.292Z,62.51
2022-08-29T23:34:53.803Z,62.68
2022-08-29T23:37:21.974Z,62.56
2022-08-29T23:39:50.921Z,62.89
2022-08-29T23:42:19.085Z,63.24
2022-08-29T23:44:48.523Z,63.86
2022-08-29T23:47:17.180Z,64.07
2022-08-29T23:49:45.694Z,64.21
2022-08-29T23:52:15.411Z,64.63
2022-08-29T23:54:43.538Z,64.71
2022-08-29T23:57:12.093Z,65.33
2022-08-29T23:59:57.656Z,65.30
